Time;durP1;ratioP1;P1;durP2;ratioP2;P2;SDS_P1;SDS_P2;PMS_P1;PMS_P2;Temp;Humidity;BMP_temperature;BMP_pressure;BME280_temperature;BME280_humidity;BME280_pressure;Samples;Min_cycle;Max_cycle;Signal;HPM_P1;HPM_P2
2021/10/20 00:00:09;;;;;;;0.90;0.40;;;7.80;1.40;;;9.38;100.00;95847.23;646002;216;31546;-71
2021/10/20 00:02:50;;;;;;;0.83;0.50;;;7.80;1.40;;;9.34;100.00;95845.06;646499;216;32071;-71
2021/10/20 00:05:32;;;;;;;0.40;0.30;;;7.80;1.40;;;9.25;100.00;95843.50;646841;212;31497;-71
2021/10/20 00:08:14;;;;;;;0.40;0.30;;;7.80;1.40;;;9.26;100.00;95839.97;646278;212;32033;-71
2021/10/20 00:10:59;;;;;;;0.90;0.30;;;7.80;1.40;;;9.38;100.00;95829.92;645543;212;31516;-71
2021/10/20 00:13:40;;;;;;;0.40;0.20;;;8.10;1.40;;;9.36;100.00;95835.99;646471;212;31504;-72
2021/10/20 00:16:22;;;;;;;0.50;0.40;;;8.00;1.40;;;9.45;100.00;95838.27;646875;212;31833;-71
2021/10/20 00:19:04;;;;;;;0.50;0.50;;;8.10;1.40;;;9.64;100.00;95833.44;647408;212;31783;-73
2021/10/20 00:21:45;;;;;;;0.40;0.20;;;8.30;1.40;;;9.70;100.00;95831.87;644904;212;31526;-72
2021/10/20 00:24:27;;;;;;;0.43;0.40;;;8.40;1.40;;;9.79;100.00;95828.67;647041;212;31486;-71
2021/10/20 00:27:09;;;;;;;0.40;0.20;;;8.60;1.40;;;9.90;100.00;95824.34;646638;212;31509;-71
2021/10/20 00:29:50;;;;;;;0.40;0.30;;;8.80;1.40;;;9.99;100.00;95820.80;645280;212;31518;-72
2021/10/20 00:32:32;;;;;;;0.40;0.30;;;8.90;1.40;;;10.04;100.00;95816.86;646695;212;31637;-70
2021/10/20 00:35:51;;;;;;;0.90;0.60;;;9.00;1.40;;;10.06;100.00;95813.27;646719;212;31814;-72
2021/10/20 00:38:33;;;;;;;0.70;0.70;;;9.00;1.40;;;9.83;100.00;95806.25;646370;212;31840;-71
2021/10/20 00:41:14;;;;;;;0.40;0.20;;;8.70;1.40;;;9.49;100.00;95806.92;642314;216;31638;-72
2021/10/20 00:43:56;;;;;;;0.40;0.30;;;8.10;1.40;;;9.28;100.00;95796.82;647154;216;32182;-72
2021/10/20 00:46:38;;;;;;;0.50;0.30;;;7.90;1.40;;;9.18;100.00;95797.53;646127;216;31521;-71
2021/10/20 00:49:20;;;;;;;0.40;0.30;;;7.80;1.40;;;9.20;100.00;95798.59;648433;212;31502;-72
2021/10/20 00:52:01;;;;;;;0.50;0.43;;;7.90;1.40;;;9.66;100.00;95795.89;645579;212;31579;-71
2021/10/20 00:54:43;;;;;;;0.40;0.20;;;8.60;1.40;;;9.75;100.00;95793.03;646183;216;31502;-72
2021/10/20 00:57:25;;;;;;;0.40;0.30;;;8.80;1.40;;;9.81;100.00;95788.73;618620;226;31827;-71
2021/10/20 01:00:07;;;;;;;0.50;0.50;;;8.80;1.40;;;9.80;100.00;95788.59;631002;217;31654;-71
2021/10/20 01:02:49;;;;;;;0.40;0.20;;;8.70;1.40;;;9.86;100.00;95777.42;619694;226;31821;-71
2021/10/20 01:05:31;;;;;;;0.40;0.20;;;8.80;1.40;;;10.01;100.00;95771.00;646761;212;31501;-71
2021/10/20 01:08:12;;;;;;;0.40;0.30;;;9.00;1.40;;;9.99;100.00;95767.06;645553;216;31519;-70
2021/10/20 01:10:54;;;;;;;0.40;0.30;;;9.00;1.40;;;10.26;100.00;95764.16;646365;212;31461;-72
2021/10/20 01:13:36;;;;;;;0.43;0.30;;;9.40;1.40;;;10.46;100.00;95760.17;647188;216;31501;-73
2021/10/20 01:16:17;;;;;;;0.60;0.30;;;9.70;1.40;;;10.55;100.00;95752.92;646281;216;31509;-72
2021/10/20 01:19:02;;;;;;;0.50;0.50;;;9.80;1.40;;;10.63;100.00;95749.28;646998;212;42152;-71
2021/10/20 01:21:44;;;;;;;0.40;0.40;;;9.90;1.40;;;10.90;100.00;95742.80;647394;216;31500;-71
2021/10/20 01:24:25;;;;;;;0.40;0.20;;;10.20;1.40;;;10.85;100.00;95740.63;645662;212;31591;-71
2021/10/20 01:27:07;;;;;;;0.40;0.20;;;10.10;1.40;;;10.79;100.00;95736.94;646247;212;31705;-71
2021/10/20 01:29:49;;;;;;;0.43;0.25;;;10.00;1.40;;;10.70;100.00;95734.30;646363;213;31830;-71
2021/10/20 01:32:30;;;;;;;0.40;0.25;;;9.80;1.40;;;10.75;100.00;95727.98;647224;212;31482;-71
2021/10/20 01:35:51;;;;;;;0.80;0.60;;;9.80;1.40;;;10.72;100.00;95722.18;646300;212;31724;-71
2021/10/20 01:38:32;;;;;;;0.40;0.30;;;9.90;1.40;;;10.87;100.00;95720.30;646461;216;31911;-72
2021/10/20 01:41:14;;;;;;;0.50;0.30;;;10.10;1.40;;;10.97;100.00;95717.67;617762;226;31958;-72
2021/10/20 01:43:56;;;;;;;0.80;0.60;;;10.20;1.40;;;11.01;100.00;95710.80;646763;216;31724;-74
2021/10/20 01:46:38;;;;;;;0.80;0.50;;;10.30;1.40;;;11.02;100.00;95708.92;646965;216;42106;-71
2021/10/20 01:49:19;;;;;;;0.40;0.20;;;10.30;1.40;;;11.12;100.00;95705.41;647506;216;42091;-71
2021/10/20 01:52:04;;;;;;;0.40;0.30;;;10.40;1.40;;;11.19;100.00;95699.39;646322;212;42251;-71
2021/10/20 01:54:46;;;;;;;0.40;0.23;;;10.40;1.40;;;11.22;100.00;95696.33;645863;216;32084;-71
2021/10/20 01:57:27;;;;;;;0.40;0.20;;;10.40;1.40;;;11.30;100.00;95691.03;646645;216;32128;-72
2021/10/20 02:00:11;;;;;;;0.40;0.40;;;10.50;1.40;;;11.37;100.00;95684.28;647490;216;42221;-70
2021/10/20 02:05:27;;;;;;;0.40;0.30;;;10.60;1.40;;;11.20;100.00;95676.91;619328;226;43245;-71
2021/10/20 02:08:08;;;;;;;0.60;0.40;;;10.20;1.40;;;11.06;100.00;95670.53;647078;216;32136;-72
2021/10/20 02:10:50;;;;;;;0.40;0.20;;;10.00;1.40;;;11.07;100.00;95668.19;618287;226;34196;-71
2021/10/20 02:13:35;;;;;;;0.40;0.20;;;10.00;1.40;;;11.13;100.00;95667.36;646874;212;42084;-72
2021/10/20 02:16:16;;;;;;;0.50;0.50;;;10.10;1.40;;;11.11;100.00;95665.98;647149;212;42087;-72
2021/10/20 02:18:58;;;;;;;0.40;0.30;;;10.10;1.40;;;11.15;100.00;95665.41;646709;216;42534;-71
2021/10/20 02:21:40;;;;;;;0.40;0.30;;;10.30;1.40;;;11.18;100.00;95659.25;645620;216;31472;-71
2021/10/20 02:24:22;;;;;;;0.40;0.20;;;10.40;1.40;;;11.17;100.00;95654.06;646677;216;31495;-70
2021/10/20 02:27:06;;;;;;;0.40;0.20;;;10.30;1.40;;;11.12;100.00;95653.33;645811;216;31518;-71
2021/10/20 02:29:48;;;;;;;0.40;0.20;;;10.10;1.40;;;11.03;100.00;95649.87;619804;222;32099;-71
2021/10/20 02:32:30;;;;;;;0.60;0.60;;;10.00;1.40;;;11.06;100.00;95643.67;645710;216;38069;-71
2021/10/20 02:35:54;;;;;;;0.40;0.20;;;10.20;1.40;;;11.12;100.00;95640.56;646909;212;31496;-73
2021/10/20 02:38:36;;;;;;;0.50;0.30;;;10.10;1.40;;;10.90;100.00;95641.59;619213;222;42486;-72
2021/10/20 02:41:18;;;;;;;0.40;0.20;;;9.80;1.40;;;10.84;100.00;95636.28;642044;212;31643;-70
2021/10/20 02:43:59;;;;;;;0.40;0.20;;;9.70;1.40;;;10.72;100.00;95638.88;646576;212;42305;-72
2021/10/20 02:46:44;;;;;;;0.60;0.50;;;9.50;1.40;;;10.65;100.00;95636.24;647069;212;42968;-72
2021/10/20 02:49:26;;;;;;;0.40;0.30;;;9.50;1.40;;;10.51;100.00;95630.99;647449;212;42227;-72
2021/10/20 02:52:07;;;;;;;0.40;0.20;;;9.30;1.40;;;10.32;100.00;95629.04;619166;226;42805;-72
2021/10/20 02:54:49;;;;;;;0.60;0.40;;;8.90;1.40;;;10.15;100.00;95630.42;648121;212;31504;-71
2021/10/20 02:57:31;;;;;;;0.40;0.30;;;8.60;1.40;;;9.94;100.00;95626.08;646388;216;31504;-71
2021/10/20 03:00:16;;;;;;;0.40;0.30;;;8.30;1.40;;;9.78;100.00;95623.78;646275;216;31505;-72
2021/10/20 03:02:57;;;;;;;0.40;0.20;;;8.20;1.40;;;9.65;100.00;95625.04;646444;216;32459;-72
2021/10/20 03:05:40;;;;;;;1.15;0.62;;;8.00;1.40;;;9.53;100.00;95624.94;646852;216;31688;-74
2021/10/20 03:08:25;;;;;;;0.40;0.20;;;7.90;1.40;;;9.44;100.00;95624.39;646571;212;31478;-77
2021/10/20 03:11:09;;;;;;;0.40;0.20;;;7.80;1.40;;;9.28;100.00;95623.69;617460;222;31956;-73
2021/10/20 03:13:54;;;;;;;0.40;0.30;;;7.80;1.40;;;9.15;100.00;95615.36;644156;212;31527;-73
2021/10/20 03:16:36;;;;;;;0.40;0.20;;;7.60;1.40;;;9.06;100.00;95612.59;648005;212;31550;-74
2021/10/20 03:19:18;;;;;;;0.40;0.30;;;7.50;1.40;;;9.07;100.00;95611.49;619339;222;31805;-73
2021/10/20 03:21:59;;;;;;;0.40;0.30;;;7.60;1.40;;;9.06;100.00;95610.43;646246;216;31651;-73
2021/10/20 03:24:41;;;;;;;1.20;0.40;;;7.60;1.40;;;9.24;100.00;95611.34;647107;216;31524;-71
2021/10/20 03:27:24;;;;;;;0.40;0.20;;;7.90;1.40;;;9.09;100.00;95606.00;645859;212;31518;-71
2021/10/20 03:35:54;;;;;;;0.40;0.30;;;7.70;1.40;;;8.90;100.00;95596.50;647369;212;31524;-70
2021/10/20 03:38:35;;;;;;;0.40;0.20;;;7.50;1.40;;;8.87;100.00;95595.29;646467;212;31479;-71
2021/10/20 03:41:17;;;;;;;0.40;0.30;;;7.40;1.40;;;8.77;100.00;95590.66;646734;216;31475;-71
2021/10/20 03:43:59;;;;;;;0.47;0.30;;;7.30;1.40;;;8.74;100.00;95592.03;645380;216;31584;-70
2021/10/20 03:46:40;;;;;;;0.40;0.30;;;7.20;1.40;;;8.81;100.00;95588.23;645353;216;31490;-70
2021/10/20 03:49:22;;;;;;;1.30;0.50;;;7.40;1.40;;;8.81;100.00;95587.74;645905;212;31564;-74
2021/10/20 03:52:04;;;;;;;1.10;0.60;;;7.40;1.40;;;8.82;100.00;95580.01;645739;216;31514;-71
2021/10/20 03:57:23;;;;;;;0.40;0.20;;;7.60;1.40;;;8.72;100.00;95575.30;646465;216;31493;-71
2021/10/20 04:02:42;;;;;;;0.40;0.20;;;7.30;1.40;;;8.67;100.00;95572.11;646109;216;31501;-70
2021/10/20 04:05:25;;;;;;;0.40;0.20;;;7.10;1.40;;;8.68;100.00;95567.78;647528;216;31478;-71
2021/10/20 04:08:07;;;;;;;0.40;0.20;;;7.30;1.40;;;8.59;100.00;95564.64;646893;216;31689;-71
2021/10/20 04:10:52;;;;;;;11.30;0.90;;;7.10;1.40;;;8.52;100.00;95562.53;645466;212;33197;-71
2021/10/20 04:13:33;;;;;;;0.40;0.20;;;7.00;1.40;;;8.44;100.00;95552.85;646938;216;32070;-71
2021/10/20 04:16:15;;;;;;;0.40;0.20;;;6.90;1.40;;;8.37;100.00;95552.42;647419;216;31491;-72
2021/10/20 04:18:57;;;;;;;0.40;0.20;;;6.90;1.40;;;8.27;100.00;95548.78;646590;212;31672;-72
2021/10/20 04:21:38;;;;;;;0.40;0.20;;;6.70;1.40;;;8.20;100.00;95543.13;646119;212;31516;-71
2021/10/20 04:24:20;;;;;;;0.40;0.20;;;6.70;1.40;;;8.21;100.00;95537.56;647175;216;31552;-71
2021/10/20 04:27:05;;;;;;;0.40;0.20;;;6.70;1.40;;;8.28;100.00;95534.87;649046;216;31510;-71
2021/10/20 04:29:47;;;;;;;0.40;0.40;;;7.00;1.40;;;8.33;100.00;95533.09;646002;216;31489;-71
2021/10/20 04:32:28;;;;;;;0.40;0.20;;;7.10;1.40;;;8.33;100.00;95526.18;618146;226;31902;-71
2021/10/20 04:35:51;;;;;;;0.40;0.30;;;7.00;1.40;;;8.49;100.00;95524.64;646583;216;31509;-72
2021/10/20 04:38:33;;;;;;;0.80;0.50;;;7.10;1.40;;;8.69;100.00;95523.05;647151;212;31530;-73
2021/10/20 04:41:14;;;;;;;0.70;0.30;;;7.60;1.40;;;9.01;100.00;95513.09;646304;216;31511;-71
2021/10/20 04:43:56;;;;;;;0.40;0.27;;;7.90;1.40;;;9.16;100.00;95509.22;647548;216;31572;-71
2021/10/20 04:46:38;;;;;;;0.40;0.20;;;8.00;1.40;;;8.98;100.00;95507.95;645392;216;31667;-71
2021/10/20 04:49:20;;;;;;;0.40;0.23;;;7.70;1.40;;;8.78;100.00;95509.98;646863;212;31880;-71
2021/10/20 04:52:01;;;;;;;0.50;0.50;;;7.40;1.40;;;8.62;100.00;95499.20;646969;216;32061;-73
2021/10/20 04:57:17;;;;;;;0.50;0.30;;;7.20;1.40;;;8.49;100.00;95485.09;646252;216;42272;-72
2021/10/20 04:59:59;;;;;;;0.40;0.20;;;7.10;1.40;;;8.58;100.00;95479.22;646880;213;31476;-71
2021/10/20 05:02:40;;;;;;;0.40;0.20;;;7.20;1.40;;;8.64;100.00;95478.86;645446;216;31510;-71
2021/10/20 05:05:23;;;;;;;0.40;0.20;;;7.30;1.40;;;8.65;100.00;95476.58;647601;212;31525;-71
2021/10/20 05:08:04;;;;;;;0.40;0.20;;;7.20;1.40;;;8.59;100.00;95475.84;646225;216;31491;-71
2021/10/20 05:10:46;;;;;;;0.40;0.30;;;7.10;1.40;;;8.57;100.00;95472.36;647986;212;31430;-71
2021/10/20 05:13:30;;;;;;;0.40;0.20;;;7.20;1.40;;;8.98;100.00;95472.90;618661;222;31846;-71
2021/10/20 05:16:12;;;;;;;0.40;0.20;;;7.70;1.40;;;9.20;100.00;95471.34;647613;212;31531;-71
2021/10/20 05:18:54;;;;;;;0.97;0.67;;;8.00;1.40;;;9.32;100.00;95472.20;645629;216;31531;-74
2021/10/20 05:21:35;;;;;;;0.60;0.60;;;8.20;1.40;;;9.02;100.00;95469.88;646436;212;31501;-72
2021/10/20 05:24:17;;;;;;;0.40;0.20;;;7.60;1.40;;;8.80;100.00;95474.33;645982;216;31604;-71
2021/10/20 05:26:59;;;;;;;0.40;0.20;;;7.30;1.40;;;8.65;100.00;95471.38;645405;212;31585;-72
2021/10/20 05:29:40;;;;;;;0.40;0.30;;;7.10;1.40;;;8.56;100.00;95480.11;647316;216;32054;-72
2021/10/20 05:32:22;;;;;;;0.95;0.47;;;6.90;1.40;;;8.49;100.00;95481.73;645272;216;32406;-72
2021/10/20 05:35:51;;;;;;;0.40;0.20;;;6.90;1.40;;;8.39;100.00;95483.33;645541;216;31583;-72
2021/10/20 05:41:07;;;;;;;0.40;0.30;;;6.70;1.40;;;8.23;100.00;95485.91;615654;226;32197;-71
2021/10/20 05:43:49;;;;;;;1.40;0.40;;;6.60;1.40;;;8.14;100.00;95488.24;646353;216;31733;-71
2021/10/20 05:46:31;;;;;;;0.60;0.40;;;6.60;1.40;;;8.09;100.00;95489.72;646960;216;31571;-71
2021/10/20 05:49:12;;;;;;;0.40;0.20;;;6.50;1.40;;;8.22;100.00;95489.85;645008;216;31508;-70
2021/10/20 05:54:28;;;;;;;0.53;0.40;;;6.70;1.40;;;8.16;100.00;95487.42;646676;212;31522;-70
2021/10/20 05:57:13;;;;;;;0.40;0.23;;;6.60;1.40;;;8.07;100.00;95484.17;618879;226;32387;-71
2021/10/20 05:59:55;;;;;;;0.60;0.40;;;6.60;1.40;;;8.00;100.00;95482.09;645838;216;32042;-71
2021/10/20 06:02:39;;;;;;;1.10;0.50;;;6.50;1.40;;;7.88;100.00;95483.81;646979;216;31520;-71
2021/10/20 06:05:21;;;;;;;0.40;0.30;;;6.50;1.40;;;7.91;100.00;95477.52;645229;212;31516;-71
2021/10/20 06:08:03;;;;;;;0.40;0.30;;;6.50;1.40;;;7.97;100.00;95469.62;645271;212;31487;-73
2021/10/20 06:10:48;;;;;;;0.43;0.30;;;6.50;1.40;;;8.01;100.00;95471.44;645785;216;31629;-71
2021/10/20 06:13:29;;;;;;;0.50;0.30;;;6.60;1.40;;;8.13;100.00;95472.81;644930;216;31675;-72
2021/10/20 06:16:11;;;;;;;0.80;0.70;;;6.60;1.40;;;8.23;100.00;95466.08;647571;216;31703;-72
2021/10/20 06:18:56;;;;;;;0.50;0.30;;;6.80;1.40;;;8.27;100.00;95467.33;644920;216;31498;-71
2021/10/20 06:21:39;;;;;;;0.50;0.40;;;6.80;1.40;;;8.35;100.00;95468.43;647614;216;31511;-71
2021/10/20 06:24:24;;;;;;;0.40;0.30;;;6.90;1.40;;;8.35;100.00;95468.38;647126;212;31604;-71
2021/10/20 06:27:06;;;;;;;0.50;0.40;;;6.90;1.40;;;8.44;100.00;95467.97;646614;212;31588;-71
2021/10/20 06:29:47;;;;;;;0.90;0.80;;;7.00;1.40;;;8.52;100.00;95464.94;647102;216;31606;-72
2021/10/20 06:32:29;;;;;;;0.60;0.57;;;7.00;1.40;;;8.58;100.00;95467.27;646669;216;31726;-72
2021/10/20 06:35:51;;;;;;;0.50;0.50;;;7.00;1.40;;;8.58;100.00;95461.86;645307;212;31676;-73
2021/10/20 06:38:32;;;;;;;0.40;0.30;;;7.10;1.40;;;8.61;100.00;95462.96;645929;216;31761;-71
2021/10/20 06:41:14;;;;;;;0.63;0.63;;;7.10;1.40;;;8.78;100.00;95455.81;643408;216;32524;-70
2021/10/20 06:43:56;;;;;;;0.90;0.90;;;7.60;1.40;;;8.98;100.00;95460.41;644870;212;32350;-71
2021/10/20 06:46:37;;;;;;;0.43;0.40;;;7.70;1.40;;;9.13;100.00;95461.30;646841;212;32107;-70
2021/10/20 06:49:19;;;;;;;0.40;0.20;;;7.70;1.40;;;9.23;100.00;95456.46;645964;212;32551;-70
2021/10/20 06:52:01;;;;;;;1.25;1.15;;;8.10;1.40;;;9.49;100.00;95458.58;646750;216;31600;-70
2021/10/20 06:54:46;;;;;;;0.40;0.20;;;8.60;1.40;;;9.76;100.00;95460.22;645043;216;31501;-72
2021/10/20 06:57:27;;;;;;;0.40;0.30;;;8.90;1.40;;;9.97;100.00;95459.91;646533;212;31489;-71
2021/10/20 07:00:10;;;;;;;0.40;0.30;;;9.20;1.40;;;10.16;100.00;95462.77;619101;226;31865;-71
2021/10/20 07:02:51;;;;;;;0.90;0.30;;;9.40;1.40;;;10.36;100.00;95464.48;618029;222;31920;-71
2021/10/20 07:05:33;;;;;;;0.40;0.40;;;9.60;1.40;;;10.57;100.00;95468.72;645551;216;31517;-70
2021/10/20 07:08:15;;;;;;;0.40;0.30;;;9.60;1.40;;;10.76;100.00;95472.45;646434;212;31519;-70
2021/10/20 07:10:56;;;;;;;0.50;0.50;;;9.80;1.40;;;10.88;100.00;95470.16;646328;216;32109;-71
2021/10/20 07:13:38;;;;;;;0.40;0.20;;;9.90;1.40;;;11.02;100.00;95471.11;646268;216;31651;-70
2021/10/20 07:16:23;;;;;;;0.60;0.60;;;10.20;1.40;;;11.27;100.00;95472.66;646464;212;31522;-71
2021/10/20 07:19:07;;;;;;;1.00;0.30;;;10.50;1.40;;;11.56;100.00;95472.86;646914;216;31494;-70
2021/10/20 07:21:46;;;;;;;0.60;0.30;;;10.80;1.40;;;11.86;100.00;95471.77;645054;212;42275;-71
2021/10/20 07:24:31;;;;;;;0.50;0.50;;;11.10;1.40;;;12.23;100.00;95474.12;645793;212;42678;-71
2021/10/20 07:27:13;;;;;;;0.40;0.30;;;11.60;1.40;;;12.52;100.00;95468.57;646656;212;32156;-71
2021/10/20 07:29:55;;;;;;;1.30;0.40;;;11.90;1.40;;;12.81;100.00;95465.66;647810;212;31572;-71
2021/10/20 07:32:39;;;;;;;0.50;0.50;;;12.10;1.40;;;12.94;100.00;95462.38;619867;226;31825;-71
2021/10/20 07:35:51;;;;;;;0.40;0.30;;;12.10;1.40;;;13.11;100.00;95455.61;618386;226;32001;-71
2021/10/20 07:38:36;;;;;;;0.50;0.40;;;12.30;1.40;;;13.31;100.00;95454.63;646982;216;33542;-69
2021/10/20 07:41:17;;;;;;;0.70;0.50;;;12.60;1.40;;;13.52;100.00;95449.13;646526;216;31606;-70
2021/10/20 07:43:59;;;;;;;1.45;1.35;;;12.80;1.40;;;13.71;100.00;95444.50;647571;216;33605;-71
2021/10/20 07:46:41;;;;;;;0.90;0.50;;;13.00;1.40;;;14.01;100.00;95442.80;646406;216;32056;-71
2021/10/20 07:49:22;;;;;;;0.90;0.50;;;13.20;1.40;;;14.21;100.00;95440.64;646310;212;31490;-71
2021/10/20 07:52:04;;;;;;;1.50;0.60;;;13.40;1.40;;;14.28;100.00;95438.27;646296;213;42110;-70
2021/10/20 07:54:46;;;;;;;0.77;0.65;;;13.30;1.40;;;14.40;100.00;95434.70;618211;226;43102;-70
2021/10/20 07:57:29;;;;;;;0.55;0.40;;;13.50;1.40;;;14.52;100.00;95436.75;647147;216;42737;-71
2021/10/20 08:00:12;;;;;;;0.62;0.50;;;13.70;1.40;;;14.84;100.00;95443.34;647829;216;31562;-70
2021/10/20 08:02:54;;;;;;;1.00;0.50;;;13.90;1.40;;;14.95;100.00;95445.53;645803;212;31553;-71
2021/10/20 08:05:39;;;;;;;1.25;0.50;;;14.00;1.40;;;15.11;100.00;95448.58;645426;213;31579;-70
2021/10/20 08:08:20;;;;;;;0.70;0.60;;;14.10;1.40;;;15.37;100.00;95453.09;646410;216;31473;-71
2021/10/20 08:11:02;;;;;;;0.40;0.30;;;14.30;1.40;;;15.48;100.00;95462.62;647611;212;31503;-70
2021/10/20 08:13:44;;;;;;;0.70;0.40;;;14.60;1.40;;;15.58;100.00;95465.37;618079;222;31849;-71
2021/10/20 08:16:25;;;;;;;0.70;0.40;;;14.70;1.40;;;15.77;100.00;95464.68;646834;212;31479;-70
2021/10/20 08:19:10;;;;;;;0.40;0.30;;;14.80;1.40;;;15.88;100.00;95464.42;647976;212;31496;-70
2021/10/20 08:21:52;;;;;;;0.55;0.40;;;14.90;1.40;;;15.96;100.00;95462.88;645481;216;31804;-71
2021/10/20 08:24:33;;;;;;;3.80;0.68;;;14.80;1.40;;;15.97;100.00;95458.70;645233;212;31459;-71
2021/10/20 08:27:15;;;;;;;1.27;0.47;;;14.80;1.40;;;16.20;100.00;95459.53;618905;226;31835;-71
2021/10/20 08:29:57;;;;;;;0.85;0.62;;;15.00;1.40;;;16.46;100.00;95457.67;646500;216;31475;-70
2021/10/20 08:32:41;;;;;;;2.28;0.40;;;15.30;1.40;;;16.53;100.00;95452.44;646465;216;31621;-71
2021/10/20 08:35:51;;;;;;;0.73;0.50;;;15.50;1.40;;;16.82;100.00;95456.83;647600;212;31562;-70
2021/10/20 08:38:32;;;;;;;0.75;0.45;;;15.90;1.40;;;17.18;100.00;95457.80;646961;216;31465;-71
2021/10/20 08:41:14;;;;;;;0.60;0.40;;;16.40;1.40;;;17.33;95.04;95459.59;643099;212;31777;-71
2021/10/20 08:43:59;;;;;;;0.50;0.40;;;16.70;1.40;;;18.27;85.41;95444.48;646906;213;31470;-70
2021/10/20 08:46:41;;;;;;;1.10;0.70;;;18.80;1.40;;;19.77;78.39;95443.03;647797;212;31477;-71
2021/10/20 08:49:22;;;;;;;1.90;1.20;;;20.50;1.40;;;20.68;71.76;95435.16;646636;216;31460;-71
2021/10/20 08:52:09;;;;;;;1.30;0.62;;;20.40;1.40;;;21.75;70.09;95425.06;644758;216;31511;-70
2021/10/20 08:54:48;;;;;;;4.30;1.73;;;22.10;1.40;;;22.87;57.85;95419.06;646225;212;31694;-71
2021/10/20 08:57:30;;;;;;;1.17;0.60;;;23.20;1.40;;;22.80;52.49;95410.97;646701;216;31799;-70
2021/10/20 09:00:12;;;;;;;5.20;0.80;;;23.50;1.40;;;23.53;53.80;95422.48;647115;212;37655;-71
2021/10/20 09:02:54;;;;;;;1.95;0.60;;;24.30;1.40;;;24.38;49.16;95423.27;646827;216;31773;-71
2021/10/20 09:05:36;;;;;;;0.70;0.50;;;24.60;1.40;;;24.77;47.44;95422.75;646933;216;31508;-70
2021/10/20 09:08:17;;;;;;;0.80;0.60;;;23.80;1.40;;;24.70;48.48;95422.52;645529;212;31511;-71
2021/10/20 09:11:01;;;;;;;0.95;0.57;;;24.10;1.40;;;23.71;49.04;95421.05;646605;216;42038;-72
2021/10/20 09:13:41;;;;;;;0.70;0.40;;;23.60;1.40;;;23.07;54.58;95425.45;646618;216;31488;-71
2021/10/20 09:16:22;;;;;;;1.40;0.60;;;22.80;1.40;;;22.96;51.25;95419.84;645698;216;42130;-71
2021/10/20 09:19:10;;;;;;;0.65;0.55;;;23.30;1.40;;;23.47;50.67;95418.28;636288;217;31909;-70
2021/10/20 09:21:55;;;;;;;1.00;0.60;;;23.30;1.40;;;22.14;52.58;95418.35;647214;212;32061;-71
2021/10/20 09:24:36;;;;;;;0.70;0.70;;;22.40;1.40;;;22.15;53.90;95412.46;616992;222;31833;-71
2021/10/20 09:27:26;;;;;;;1.50;0.70;;;22.30;1.40;;;22.20;54.37;95406.26;646322;212;31712;-71
2021/10/20 09:30:11;;;;;;;0.70;0.50;;;22.50;1.40;;;22.73;51.32;95407.56;646082;212;31527;-71
2021/10/20 09:32:53;;;;;;;1.35;0.60;;;22.90;1.40;;;22.72;52.02;95402.28;646493;212;31474;-71
2021/10/20 09:35:50;;;;;;;1.52;0.60;;;23.10;1.40;;;22.52;51.84;95396.55;647090;216;39000;-71
2021/10/20 09:38:35;;;;;;;1.90;0.90;;;23.10;1.40;;;22.67;51.43;95391.16;646320;216;31608;-70
2021/10/20 09:41:16;;;;;;;0.75;0.52;;;22.70;1.40;;;24.37;51.38;95383.70;645904;216;31739;-71
2021/10/20 09:43:58;;;;;;;0.73;0.57;;;24.60;1.40;;;23.63;49.04;95379.65;646863;213;31697;-70
2021/10/20 09:49:16;;;;;;;1.08;0.60;;;24.00;1.40;;;24.06;47.94;95370.20;646606;216;31482;-71
2021/10/20 09:51:57;;;;;;;0.80;0.55;;;23.80;1.40;;;24.50;47.33;95365.36;645580;212;42442;-71
2021/10/20 09:54:41;;;;;;;0.50;0.30;;;24.40;1.40;;;26.26;45.12;95360.53;645053;216;31651;-72
2021/10/20 09:57:21;;;;;;;0.85;0.80;;;26.00;1.40;;;25.66;45.56;95354.31;647021;216;31589;-72
2021/10/20 10:00:02;;;;;;;0.98;0.60;;;25.70;1.40;;;25.61;44.15;95348.12;645807;216;31743;-72
2021/10/20 10:02:44;;;;;;;0.98;0.90;;;24.70;1.40;;;25.13;44.06;95345.36;645218;212;31857;-70
2021/10/20 10:05:27;;;;;;;0.60;0.60;;;24.30;1.40;;;27.31;45.08;95335.80;646635;212;31517;-71
2021/10/20 10:08:07;;;;;;;1.00;0.70;;;26.90;1.40;;;26.42;42.64;95328.37;646746;216;31480;-71
2021/10/20 10:10:49;;;;;;;1.33;1.10;;;25.50;1.40;;;26.18;44.17;95334.38;617314;226;31896;-71
2021/10/20 10:13:31;;;;;;;0.85;0.70;;;25.00;1.40;;;27.18;41.89;95325.52;646230;216;31563;-71
2021/10/20 10:16:12;;;;;;;0.90;0.65;;;25.80;1.40;;;24.80;44.73;95324.82;647141;216;42460;-71
2021/10/20 10:18:54;;;;;;;1.00;0.70;;;23.40;1.40;;;24.62;44.60;95319.30;645790;216;32089;-72
2021/10/20 10:21:37;;;;;;;1.17;0.70;;;23.20;1.40;;;26.46;42.12;95312.56;647001;212;31627;-72
2021/10/20 10:24:18;;;;;;;0.93;0.60;;;25.10;1.40;;;25.83;43.38;95313.13;646168;216;31575;-71
2021/10/20 10:27:04;;;;;;;0.80;0.60;;;23.80;1.40;;;25.76;43.52;95308.80;645746;212;32116;-72
2021/10/20 10:29:53;;;;;;;0.80;0.50;;;24.70;1.40;;;26.81;40.90;95301.02;645071;216;31501;-71
2021/10/20 10:32:37;;;;;;;0.70;0.50;;;26.40;1.40;;;27.04;40.29;95299.80;647443;212;31956;-71
2021/10/20 10:36:19;;;;;;;1.40;0.60;;;25.50;1.40;;;28.22;38.93;95292.43;619813;222;42193;-71
2021/10/20 10:39:08;;;;;;;2.92;0.70;;;26.70;1.40;;;28.65;38.18;95294.21;645838;212;31535;-71
2021/10/20 10:41:49;;;;;;;0.90;0.80;;;26.80;1.40;;;26.23;40.39;95294.77;639531;216;31749;-72
2021/10/20 10:44:32;;;;;;;0.93;0.80;;;25.20;1.40;;;25.91;41.21;95300.00;646688;216;31687;-71
2021/10/20 10:47:19;;;;;;;1.20;0.77;;;25.10;1.40;;;25.13;41.91;95300.44;646190;216;31530;-71
2021/10/20 10:49:58;;;;;;;2.60;1.00;;;24.30;1.40;;;24.87;43.32;95303.03;645861;213;42146;-71
2021/10/20 10:52:41;;;;;;;1.00;0.80;;;23.90;1.40;;;25.93;41.89;95285.67;647205;212;31694;-72
2021/10/20 10:55:22;;;;;;;1.00;0.75;;;24.70;1.40;;;25.32;44.59;95290.94;646342;216;31482;-71
2021/10/20 10:58:03;;;;;;;1.10;0.80;;;24.00;1.40;;;25.81;41.61;95298.82;645095;212;32114;-71
2021/10/20 11:00:46;;;;;;;0.88;0.73;;;25.20;1.40;;;26.20;41.84;95286.88;645356;212;31541;-71
2021/10/20 11:03:27;;;;;;;0.95;0.70;;;25.40;1.40;;;27.21;40.84;95281.38;647856;212;31480;-71
2021/10/20 11:06:09;;;;;;;1.10;0.80;;;26.10;1.40;;;27.40;40.21;95273.28;646924;213;31491;-71
2021/10/20 11:08:50;;;;;;;1.00;0.70;;;26.70;1.40;;;27.73;38.56;95270.39;647296;216;31544;-71
2021/10/20 11:11:32;;;;;;;1.20;0.90;;;26.00;1.40;;;26.61;42.28;95254.91;646183;212;31471;-72
2021/10/20 11:14:14;;;;;;;1.23;0.70;;;26.00;1.40;;;26.80;41.79;95251.73;619032;222;42856;-71
2021/10/20 11:16:57;;;;;;;1.60;0.95;;;26.00;1.40;;;25.27;41.55;95253.08;646505;216;31539;-72
2021/10/20 11:19:42;;;;;;;1.10;0.90;;;24.20;1.40;;;25.06;44.08;95244.70;647182;216;31474;-72
2021/10/20 11:22:25;;;;;;;1.12;1.00;;;24.30;1.40;;;24.77;43.73;95237.70;647155;216;31495;-70
2021/10/20 11:25:07;;;;;;;1.70;1.02;;;23.50;1.40;;;23.81;47.55;95241.69;647256;212;31565;-72
2021/10/20 11:27:47;;;;;;;1.08;0.80;;;22.40;1.40;;;23.73;47.86;95244.00;645890;212;31519;-71
2021/10/20 11:30:28;;;;;;;1.40;0.80;;;23.10;1.40;;;23.12;48.73;95238.64;646641;216;31498;-71
2021/10/20 11:35:51;;;;;;;1.37;0.80;;;23.60;1.40;;;23.94;48.50;95225.25;646563;212;42237;-71
2021/10/20 11:38:34;;;;;;;1.07;0.67;;;23.60;1.40;;;24.01;48.31;95218.16;647170;212;31676;-71
2021/10/20 11:41:18;;;;;;;0.98;0.70;;;23.90;1.40;;;24.20;47.53;95210.39;642778;212;31742;-71
2021/10/20 11:43:59;;;;;;;1.20;0.73;;;23.60;1.40;;;24.61;46.25;95202.44;646685;212;32052;-71
2021/10/20 11:46:44;;;;;;;1.40;0.70;;;24.20;1.40;;;25.13;46.81;95203.16;618674;226;31812;-70
2021/10/20 11:49:26;;;;;;;1.90;0.60;;;24.10;1.40;;;25.32;44.46;95192.30;606634;230;31996;-71
2021/10/20 11:52:11;;;;;;;1.00;0.70;;;23.50;1.40;;;23.29;49.10;95200.34;645544;212;31494;-72
2021/10/20 11:54:54;;;;;;;3.12;0.88;;;22.40;1.40;;;23.53;47.34;95202.79;646647;212;31475;-71
2021/10/20 11:57:35;;;;;;;0.90;0.75;;;21.90;1.40;;;22.61;49.32;95200.47;647333;214;42587;-71
2021/10/20 12:00:17;;;;;;;0.80;0.80;;;21.10;1.40;;;22.31;52.77;95195.85;645442;216;31583;-71
2021/10/20 12:02:58;;;;;;;1.55;1.08;;;21.30;1.40;;;23.20;50.39;95195.81;646627;212;32074;-71